Time;durP1;ratioP1;P1;durP2;ratioP2;P2;SDS_P1;SDS_P2;PMS_P1;PMS_P2;Temp;Humidity;BMP_temperature;BMP_pressure;BME280_temperature;BME280_humidity;BME280_pressure;Samples;Min_cycle;Max_cycle;Signal;HPM_P1;HPM_P2
2021/12/21 00:01:17;;;;;;;;;;;;;;;28.27;66.29;101182.53;5128709;27;70290;-33
2021/12/21 00:03:47;;;;;;;;;;;;;;;28.29;66.45;101185.88;5126486;27;66856;-33
2021/12/21 00:06:20;;;;;;;;;;;;;;;28.31;66.70;101186.53;5129903;27;70072;-34
2021/12/21 00:08:50;;;;;;;;;;;;;;;28.32;67.58;101184.66;5132230;27;67069;-33
2021/12/21 00:11:20;;;;;;;;;;;;;;;28.33;67.69;101187.13;5123899;27;69118;-34
2021/12/21 00:19:37;;;;;;;;;;;;;;;28.38;69.36;101200.88;5128912;27;65836;-34
2021/12/21 00:22:06;;;;;;;;;;;;;;;28.40;70.08;101198.81;5127624;27;70345;-33
2021/12/21 00:24:45;;;;;;;;;;;;;;;28.29;70.87;101205.59;5133075;27;65315;-34
2021/12/21 00:27:16;;;;;;;;;;;;;;;28.21;70.69;101200.34;5122897;27;70692;-34
2021/12/21 00:29:46;;;;;;;;;;;;;;;28.17;71.51;101209.03;5127997;27;66686;-35
2021/12/21 00:32:15;;;;;;;;;;;;;;;28.15;71.86;101211.06;5123800;27;70441;-35
2021/12/21 00:34:45;;;;;;;;;;;;;;;28.16;71.99;101218.94;5127465;27;65280;-34
2021/12/21 00:37:18;;;;;;;;;;;;;;;28.23;70.35;101219.03;5127043;27;68990;-34
2021/12/21 00:39:48;;;;;;;;;;;;;;;28.29;69.31;101226.34;5127583;27;66010;-33
2021/12/21 00:42:19;;;;;;;;;;;;;;;28.34;68.29;101228.47;5123972;27;70460;-34
2021/12/21 00:44:49;;;;;;;;;;;;;;;28.39;67.76;101229.53;5127385;27;67316;-33
2021/12/21 00:47:20;;;;;;;;;;;;;;;28.41;67.62;101224.78;5132776;27;70450;-33
2021/12/21 00:49:58;;;;;;;;;;;;;;;28.45;67.40;101228.78;5130061;27;66451;-33
2021/12/21 00:52:29;;;;;;;;;;;;;;;28.49;66.87;101234.63;5119882;27;70770;-33
2021/12/21 00:54:59;;;;;;;;;;;;;;;28.50;66.96;101233.59;5120549;27;66688;-34
2021/12/21 00:57:29;;;;;;;;;;;;;;;28.52;66.88;101235.06;5086943;27;69668;-34
2021/12/21 00:59:59;;;;;;;;;;;;;;;28.56;66.37;101229.28;5120719;27;66787;-34
2021/12/21 01:02:34;;;;;;;;;;;;;;;28.58;66.35;101238.84;5124940;27;70257;-34
2021/12/21 01:05:10;;;;;;;;;;;;;;;28.60;66.36;101235.97;5115221;27;65435;-34
2021/12/21 01:07:48;;;;;;;;;;;;;;;28.62;66.44;101242.00;5126439;27;68974;-34
2021/12/21 01:18:17;;;;;;;;;;;;;;;28.68;65.86;101254.72;5122083;27;70307;-34
2021/12/21 01:21:05;;;;;;;;;;;;;;;28.68;65.81;101260.94;5118980;27;66528;-34
2021/12/21 01:26:33;;;;;;;;;;;;;;;28.72;65.55;101262.22;5128939;27;65780;-34
2021/12/21 01:29:29;;;;;;;;;;;;;;;28.73;65.50;101271.97;5123561;27;68509;-34
2021/12/21 01:32:14;;;;;;;;;;;;;;;28.74;65.39;101270.09;5110095;27;65993;-34
2021/12/21 01:40:37;;;;;;;;;;;;;;;28.79;65.25;101269.53;5122730;27;70122;-34
2021/12/21 01:44:01;;;;;;;;;;;;;;;28.81;65.19;101276.41;5129328;27;66287;-34
2021/12/21 01:51:38;;;;;;;;;;;;;;;28.87;65.21;101281.00;5110446;27;70698;-34
2021/12/21 01:54:10;;;;;;;;;;;;;;;28.86;64.71;101268.56;5119779;27;66554;-34
2021/12/21 01:56:40;;;;;;;;;;;;;;;28.91;65.11;101282.28;5106877;27;70308;-33
2021/12/21 01:59:10;;;;;;;;;;;;;;;28.92;65.05;101275.03;5116727;27;65391;-34
2021/12/21 02:01:41;;;;;;;;;;;;;;;28.94;64.73;101270.25;5120935;27;69720;-34
2021/12/21 02:04:17;;;;;;;;;;;;;;;28.83;64.98;101258.13;5125144;27;66514;-34
2021/12/21 02:06:49;;;;;;;;;;;;;;;28.98;64.69;101276.09;5105988;27;70379;-35
2021/12/21 02:09:21;;;;;;;;;;;;;;;28.99;64.93;101272.34;5124050;27;65411;-33
2021/12/21 02:11:52;;;;;;;;;;;;;;;28.98;64.24;101271.53;5128441;27;70844;-33
2021/12/21 02:14:23;;;;;;;;;;;;;;;29.03;64.34;101273.63;5135050;27;66827;-34
2021/12/21 02:19:39;;;;;;;;;;;;;;;29.08;64.68;101276.59;5126524;27;65431;-33
2021/12/21 02:22:21;;;;;;;;;;;;;;;29.10;64.14;101277.25;5122704;27;70327;-33
2021/12/21 02:25:18;;;;;;;;;;;;;;;29.12;64.58;101277.88;5131790;27;66574;-33
2021/12/21 02:30:42;;;;;;;;;;;;;;;29.16;63.97;101279.13;5085956;27;64388;-34
2021/12/21 02:33:14;;;;;;;;;;;;;;;29.19;63.94;101276.03;5123808;27;71376;-34
2021/12/21 02:35:44;;;;;;;;;;;;;;;29.17;63.90;101273.53;5129806;27;66267;-34
2021/12/21 02:38:14;;;;;;;;;;;;;;;29.24;64.17;101270.03;5124829;27;69166;-34
2021/12/21 02:40:56;;;;;;;;;;;;;;;29.23;64.15;101269.22;5120794;27;66378;-34
2021/12/21 02:43:28;;;;;;;;;;;;;;;29.28;64.01;101271.28;5104750;27;68884;-34
2021/12/21 02:45:58;;;;;;;;;;;;;;;29.24;64.10;101261.94;5124872;27;65456;-33
2021/12/21 02:48:30;;;;;;;;;;;;;;;29.31;63.54;101269.06;5127554;27;70140;-33
2021/12/21 02:51:02;;;;;;;;;;;;;;;29.34;63.71;101271.34;5122812;27;66409;-34
2021/12/21 02:53:33;;;;;;;;;;;;;;;29.37;63.84;101264.72;5128806;27;69751;-33
2021/12/21 02:56:03;;;;;;;;;;;;;;;29.36;63.08;101258.47;5126818;27;66208;-33
2021/12/21 02:58:33;;;;;;;;;;;;;;;29.41;63.70;101260.56;5107979;27;70019;-34
2021/12/21 03:01:05;;;;;;;;;;;;;;;29.43;63.06;101263.91;5128611;27;66394;-34
2021/12/21 03:03:35;;;;;;;;;;;;;;;29.45;63.07;101264.53;5125829;27;70861;-34
2021/12/21 03:06:12;;;;;;;;;;;;;;;29.46;62.92;101251.84;5130026;27;66705;-34
2021/12/21 03:08:56;;;;;;;;;;;;;;;29.51;62.90;101249.38;5112070;27;70530;-35
2021/12/21 03:14:25;;;;;;;;;;;;;;;29.57;63.03;101254.81;5052070;27;70864;-33
2021/12/21 03:16:56;;;;;;;;;;;;;;;29.59;62.64;101247.34;5118638;27;66500;-34
2021/12/21 03:19:26;;;;;;;;;;;;;;;29.61;62.53;101247.97;5124677;27;69484;-34
2021/12/21 03:21:56;;;;;;;;;;;;;;;29.63;62.30;101245.06;5100959;27;66314;-33
2021/12/21 03:24:30;;;;;;;;;;;;;;;29.66;62.21;101241.97;5122946;27;70240;-34
2021/12/21 03:27:01;;;;;;;;;;;;;;;29.68;62.57;101239.91;5128762;27;65783;-33
2021/12/21 03:29:31;;;;;;;;;;;;;;;29.71;62.61;101236.78;5121366;27;70298;-33
2021/12/21 03:32:01;;;;;;;;;;;;;;;29.73;62.08;101232.00;5124148;27;66592;-34
2021/12/21 03:34:31;;;;;;;;;;;;;;;29.76;62.48;101231.59;5122516;27;70744;-34
2021/12/21 03:37:04;;;;;;;;;;;;;;;29.78;61.88;101224.13;5120389;27;66844;-35
2021/12/21 03:39:34;;;;;;;;;;;;;;;29.80;62.30;101221.19;5120456;27;70144;-34
2021/12/21 03:42:05;;;;;;;;;;;;;;;29.82;61.64;101211.84;5122659;27;65642;-34
2021/12/21 03:44:35;;;;;;;;;;;;;;;29.86;61.63;101216.84;5125709;27;70602;-33
2021/12/21 03:47:08;;;;;;;;;;;;;;;29.89;61.62;101221.84;5125776;27;66667;-34
2021/12/21 03:52:14;;;;;;;;;;;;;;;29.94;61.40;101208.53;5123914;27;66391;-34
2021/12/21 03:54:45;;;;;;;;;;;;;;;29.96;61.28;101203.75;5121211;27;70046;-33
2021/12/21 03:57:16;;;;;;;;;;;;;;;29.99;61.27;101203.34;5126857;27;65961;-33
2021/12/21 03:59:48;;;;;;;;;;;;;;;30.01;61.72;101195.88;5125687;27;70150;-34
2021/12/21 04:02:19;;;;;;;;;;;;;;;30.03;61.21;101188.34;5124682;27;66163;-34
2021/12/21 04:04:49;;;;;;;;;;;;;;;30.05;61.06;101197.09;5127328;27;69460;-34
2021/12/21 04:07:20;;;;;;;;;;;;;;;30.07;61.04;101189.63;5127779;27;66696;-34
2021/12/21 04:09:50;;;;;;;;;;;;;;;30.09;61.38;101182.13;5125154;27;70698;-34
2021/12/21 04:12:21;;;;;;;;;;;;;;;30.12;61.05;101176.31;5117367;27;66598;-34
2021/12/21 04:14:52;;;;;;;;;;;;;;;30.14;60.98;101176.91;5126497;27;70393;-34
2021/12/21 04:17:24;;;;;;;;;;;;;;;30.17;60.82;101170.25;5116946;27;65340;-34
2021/12/21 04:19:54;;;;;;;;;;;;;;;30.19;60.88;101177.13;5123184;27;70054;-34
2021/12/21 04:22:24;;;;;;;;;;;;;;;30.20;60.94;101162.56;5126906;27;65655;-34
2021/12/21 04:24:54;;;;;;;;;;;;;;;30.23;61.27;101167.59;5126243;27;69869;-33
2021/12/21 04:27:24;;;;;;;;;;;;;;;30.24;60.77;101155.72;5119602;27;66471;-33
2021/12/21 04:29:54;;;;;;;;;;;;;;;30.27;61.18;101157.19;5121296;27;70301;-34
2021/12/21 04:32:24;;;;;;;;;;;;;;;30.30;60.85;101155.94;5121676;27;66076;-34
2021/12/21 04:34:54;;;;;;;;;;;;;;;30.31;60.99;101141.34;5120099;27;70533;-34
2021/12/21 04:37:25;;;;;;;;;;;;;;;30.33;60.59;101142.78;5127571;27;66736;-33
2021/12/21 04:40:04;;;;;;;;;;;;;;;30.36;60.46;101138.84;5123391;27;70107;-34
2021/12/21 04:42:39;;;;;;;;;;;;;;;30.38;60.27;101137.59;5122297;27;65582;-34
2021/12/21 04:45:09;;;;;;;;;;;;;;;30.40;60.64;101129.28;5123596;27;69165;-34
2021/12/21 04:47:39;;;;;;;;;;;;;;;30.41;60.60;101126.34;5123146;27;66510;-34
2021/12/21 04:50:11;;;;;;;;;;;;;;;30.43;60.77;101118.03;5120806;27;71559;-34
2021/12/21 04:52:41;;;;;;;;;;;;;;;30.45;60.47;101115.91;5118439;27;65614;-34
2021/12/21 04:55:11;;;;;;;;;;;;;;;30.46;60.67;101107.59;5123837;27;70283;-34
2021/12/21 04:57:41;;;;;;;;;;;;;;;30.47;60.13;101108.41;5117587;27;65677;-33
2021/12/21 05:00:12;;;;;;;;;;;;;;;30.49;60.42;101106.34;5126086;27;70237;-34
2021/12/21 05:02:43;;;;;;;;;;;;;;;30.50;60.38;101103.41;5134488;27;66327;-33
2021/12/21 05:05:14;;;;;;;;;;;;;;;30.54;59.79;101092.19;5122858;27;69155;-34
2021/12/21 05:07:48;;;;;;;;;;;;;;;30.55;59.86;101096.53;5127687;27;66140;-34
2021/12/21 05:10:19;;;;;;;;;;;;;;;30.57;59.80;101089.88;5122977;27;70171;-34
2021/12/21 05:12:49;;;;;;;;;;;;;;;30.58;60.20;101091.50;5106058;27;66175;-34
2021/12/21 05:15:19;;;;;;;;;;;;;;;30.60;59.67;101088.59;5123122;27;69294;-34
2021/12/21 05:17:49;;;;;;;;;;;;;;;30.62;59.88;101081.06;5133275;27;66062;-34
2021/12/21 05:20:19;;;;;;;;;;;;;;;30.63;60.17;101072.75;5125878;27;70279;-33
2021/12/21 05:22:50;;;;;;;;;;;;;;;30.65;59.69;101070.69;5129407;27;66955;-35
2021/12/21 05:25:20;;;;;;;;;;;;;;;30.68;59.88;101064.00;5127282;27;68952;-34
2021/12/21 05:27:51;;;;;;;;;;;;;;;30.69;60.03;101063.78;5112659;27;65851;-35
2021/12/21 05:30:22;;;;;;;;;;;;;;;30.71;60.02;101053.56;5125805;27;69762;-35
2021/12/21 05:32:53;;;;;;;;;;;;;;;30.72;59.90;101052.50;5121968;27;65484;-39
2021/12/21 05:35:26;;;;;;;;;;;;;;;30.74;59.49;101044.19;5132156;27;71083;-33
2021/12/21 05:38:00;;;;;;;;;;;;;;;30.78;59.82;101047.28;5121590;27;66619;-33
2021/12/21 05:40:37;;;;;;;;;;;;;;;30.81;59.78;101038.75;5121827;27;69596;-34
2021/12/21 05:43:09;;;;;;;;;;;;;;;30.83;59.29;101033.97;5102535;27;65610;-34
2021/12/21 05:45:39;;;;;;;;;;;;;;;30.78;59.69;101009.38;5124393;27;69886;-34
2021/12/21 05:48:09;;;;;;;;;;;;;;;30.87;59.43;101017.06;5125865;27;66143;-33
2021/12/21 05:50:39;;;;;;;;;;;;;;;30.86;59.43;101003.72;5125914;27;70329;-33
2021/12/21 05:53:09;;;;;;;;;;;;;;;30.91;59.10;101012.03;5122233;27;65907;-34
2021/12/21 05:55:39;;;;;;;;;;;;;;;30.90;59.13;100988.72;5120931;27;70249;-33
2021/12/21 05:58:09;;;;;;;;;;;;;;;30.95;59.67;101002.41;5122412;27;65060;-34
2021/12/21 06:00:40;;;;;;;;;;;;;;;30.97;59.24;100997.63;5127283;27;70028;-34
2021/12/21 06:03:10;;;;;;;;;;;;;;;30.99;59.58;100992.81;5107156;27;65339;-32
2021/12/21 06:05:40;;;;;;;;;;;;;;;31.01;59.09;100985.31;5122852;27;69802;-34
2021/12/21 06:08:11;;;;;;;;;;;;;;;31.02;58.93;100981.53;5137210;27;67020;-33
2021/12/21 06:10:42;;;;;;;;;;;;;;;31.06;59.06;100982.75;5125560;27;70055;-34
2021/12/21 06:16:29;;;;;;;;;;;;;;;31.11;59.26;100973.97;5081771;27;69918;-34
2021/12/21 06:27:13;;;;;;;;;;;;;;;31.19;59.35;100943.06;5120998;27;70917;-34
2021/12/21 06:29:43;;;;;;;;;;;;;;;31.22;58.77;100951.59;5108704;27;66341;-34
2021/12/21 06:32:13;;;;;;;;;;;;;;;31.24;58.86;100948.66;5127704;27;69410;-34
2021/12/21 06:34:44;;;;;;;;;;;;;;;31.26;59.00;100949.25;5122022;27;66048;-34
2021/12/21 06:37:14;;;;;;;;;;;;;;;31.27;58.68;100931.97;5124940;27;70419;-34
2021/12/21 06:39:44;;;;;;;;;;;;;;;31.30;59.08;100935.03;5126145;27;65234;-35
2021/12/21 06:42:15;;;;;;;;;;;;;;;31.31;58.81;100933.97;5130136;27;70703;-34
2021/12/21 06:44:53;;;;;;;;;;;;;;;31.33;58.82;100934.59;5126174;27;65473;-34
2021/12/21 06:53:00;;;;;;;;;;;;;;;31.41;58.44;100930.00;5120950;27;69946;-33
2021/12/21 06:55:30;;;;;;;;;;;;;;;31.42;58.63;100924.34;5125940;27;66575;-33
2021/12/21 06:58:00;;;;;;;;;;;;;;;31.43;58.35;100915.16;5123785;27;70136;-36
2021/12/21 07:00:30;;;;;;;;;;;;;;;31.44;58.93;100914.09;5128008;27;66167;-34
2021/12/21 07:03:01;;;;;;;;;;;;;;;31.47;59.07;100907.41;5127884;27;70933;-34
2021/12/21 07:05:31;;;;;;;;;;;;;;;31.49;58.68;100908.84;5121680;27;66693;-34
2021/12/21 07:08:01;;;;;;;;;;;;;;;31.52;59.14;100910.28;5128986;27;69279;-34
2021/12/21 07:10:32;;;;;;;;;;;;;;;31.54;58.74;100909.00;5124334;27;65542;-34
2021/12/21 07:18:53;;;;;;;;;;;;;;;31.61;58.95;100908.94;5121185;27;70678;-35
2021/12/21 07:21:24;;;;;;;;;;;;;;;31.61;59.18;100898.91;5109939;27;67034;-34
2021/12/21 07:23:54;;;;;;;;;;;;;;;31.64;59.12;100894.09;5106173;27;70279;-34
2021/12/21 07:26:27;;;;;;;;;;;;;;;31.66;59.10;100894.69;5118752;27;59721;-34
2021/12/21 07:28:58;;;;;;;;;;;;;;;31.69;58.98;100888.81;5121375;27;69757;-34
2021/12/21 07:31:28;;;;;;;;;;;;;;;31.72;58.91;100882.94;5120309;27;66058;-35
2021/12/21 07:33:59;;;;;;;;;;;;;;;31.74;58.65;100892.50;5103448;27;69725;-34
2021/12/21 07:36:32;;;;;;;;;;;;;;;31.77;58.88;100885.81;5117315;27;66670;-35
2021/12/21 07:39:06;;;;;;;;;;;;;;;31.81;58.57;100893.25;5124751;27;70024;-34
2021/12/21 07:41:36;;;;;;;;;;;;;;;31.85;58.58;100882.78;5125162;27;66196;-34
2021/12/21 07:44:06;;;;;;;;;;;;;;;31.88;58.47;100882.34;5125854;27;69703;-34
2021/12/21 07:46:37;;;;;;;;;;;;;;;31.92;58.42;100888.16;5118599;27;66082;-34
2021/12/21 07:49:07;;;;;;;;;;;;;;;31.95;58.62;100883.09;5123289;27;69176;-34
2021/12/21 07:51:37;;;;;;;;;;;;;;;31.99;58.35;100878.91;5121876;27;66331;-32
2021/12/21 07:54:09;;;;;;;;;;;;;;;32.05;58.24;100886.13;5125523;27;69164;-33
2021/12/21 07:56:39;;;;;;;;;;;;;;;32.09;58.19;100883.75;5125414;27;65535;-33
2021/12/21 07:59:11;;;;;;;;;;;;;;;32.12;58.10;100893.34;5126848;27;70969;-33
2021/12/21 08:01:41;;;;;;;;;;;;;;;32.18;58.03;100897.84;5123021;27;66317;-32
2021/12/21 08:04:12;;;;;;;;;;;;;;;32.20;58.05;100895.72;5104616;27;70224;-33
2021/12/21 08:06:45;;;;;;;;;;;;;;;32.25;57.83;100887.75;5117943;27;66031;-34
2021/12/21 08:09:16;;;;;;;;;;;;;;;32.30;58.04;100895.19;5124383;27;70116;-34
2021/12/21 08:14:34;;;;;;;;;;;;;;;32.36;57.38;100894.28;5125734;27;70300;-33
2021/12/21 08:17:04;;;;;;;;;;;;;;;32.39;57.37;100893.81;5120048;27;66460;-34
2021/12/21 08:19:35;;;;;;;;;;;;;;;32.42;57.43;100890.63;5124335;27;70583;-34
2021/12/21 08:22:05;;;;;;;;;;;;;;;32.47;57.53;100896.25;5121356;27;66669;-35
2021/12/21 08:24:35;;;;;;;;;;;;;;;32.52;57.13;100906.41;5120435;27;70081;-34
2021/12/21 08:27:06;;;;;;;;;;;;;;;32.56;57.09;100894.03;5107074;27;67107;-34
2021/12/21 08:29:36;;;;;;;;;;;;;;;32.60;57.21;100906.09;5119702;27;70042;-33
2021/12/21 08:32:06;;;;;;;;;;;;;;;32.63;57.08;100884.72;5130405;27;66277;-34
2021/12/21 08:34:37;;;;;;;;;;;;;;;32.68;56.77;100893.00;5122878;27;69752;-35
2021/12/21 08:37:08;;;;;;;;;;;;;;;32.71;56.94;100900.69;5123586;27;65649;-34
2021/12/21 08:39:40;;;;;;;;;;;;;;;32.76;56.63;100891.81;5117430;27;69419;-34
2021/12/21 08:42:15;;;;;;;;;;;;;;;32.79;56.78;100904.97;5102732;27;65555;-33
2021/12/21 08:44:47;;;;;;;;;;;;;;;32.84;56.68;100907.78;5120082;27;70561;-34
2021/12/21 08:47:19;;;;;;;;;;;;;;;32.87;56.51;100906.50;5116565;27;65220;-35
2021/12/21 08:49:49;;;;;;;;;;;;;;;32.89;56.68;100904.38;5101794;27;70274;-34
2021/12/21 08:52:19;;;;;;;;;;;;;;;32.92;56.40;100901.19;5124962;27;66513;-34
2021/12/21 08:55:03;;;;;;;;;;;;;;;32.94;56.33;100894.47;5123453;27;69280;-34
2021/12/21 08:57:33;;;;;;;;;;;;;;;32.98;56.24;100896.72;5091717;27;65820;-34
2021/12/21 09:00:07;;;;;;;;;;;;;;;33.00;56.23;100900.06;5118925;27;70095;-34
2021/12/21 09:02:38;;;;;;;;;;;;;;;33.05;56.22;100902.91;5112826;27;65538;-34
2021/12/21 09:05:16;;;;;;;;;;;;;;;33.07;55.92;100900.75;5126677;27;69358;-33
2021/12/21 09:07:48;;;;;;;;;;;;;;;33.10;56.39;100906.56;5130197;27;66871;-34
2021/12/21 09:10:21;;;;;;;;;;;;;;;33.12;55.98;100909.03;5119571;27;70241;-34
2021/12/21 09:12:52;;;;;;;;;;;;;;;33.15;55.68;100911.28;5121550;27;67560;-34
2021/12/21 09:15:22;;;;;;;;;;;;;;;33.17;55.65;100917.31;5122355;27;69615;-34
2021/12/21 09:17:54;;;;;;;;;;;;;;;33.20;55.93;100916.03;5127451;27;66939;-34
2021/12/21 09:20:26;;;;;;;;;;;;;;;33.21;55.58;100921.25;5121959;27;70348;-34
2021/12/21 09:22:57;;;;;;;;;;;;;;;33.22;55.68;100920.16;5125009;27;66339;-34
2021/12/21 09:25:28;;;;;;;;;;;;;;;33.24;55.69;100918.03;5117853;27;70453;-34
2021/12/21 09:27:58;;;;;;;;;;;;;;;33.25;55.62;100919.69;5120143;27;65641;-33
2021/12/21 09:30:28;;;;;;;;;;;;;;;33.27;55.45;100923.00;5126563;27;69149;-33
2021/12/21 09:32:59;;;;;;;;;;;;;;;33.28;55.73;100930.09;5120725;27;65571;-33
2021/12/21 09:35:29;;;;;;;;;;;;;;;33.29;55.47;100934.47;5088962;27;70501;-33
2021/12/21 09:38:00;;;;;;;;;;;;;;;33.29;55.43;100931.75;5124983;27;66312;-33
2021/12/21 09:40:30;;;;;;;;;;;;;;;33.30;55.51;100935.31;5100566;27;69095;-34
2021/12/21 09:43:00;;;;;;;;;;;;;;;33.32;55.58;100935.88;5123051;27;66196;-34
2021/12/21 09:45:30;;;;;;;;;;;;;;;33.32;55.69;100946.75;5119597;27;70269;-34
2021/12/21 09:48:01;;;;;;;;;;;;;;;33.30;55.45;100947.00;5103888;27;66337;-33
2021/12/21 09:50:32;;;;;;;;;;;;;;;33.30;55.29;100949.72;5127846;27;70724;-34
2021/12/21 09:53:02;;;;;;;;;;;;;;;33.30;55.63;100944.28;5121617;27;65772;-35
2021/12/21 09:55:33;;;;;;;;;;;;;;;33.29;55.23;100953.50;5123139;27;69240;-35
2021/12/21 09:58:03;;;;;;;;;;;;;;;33.28;55.46;100957.28;5124265;27;66015;-34
2021/12/21 10:00:34;;;;;;;;;;;;;;;33.28;55.50;100962.72;5127682;27;70557;-34
2021/12/21 10:03:07;;;;;;;;;;;;;;;33.25;55.57;100954.22;5112129;27;66476;-34
2021/12/21 10:05:38;;;;;;;;;;;;;;;33.26;55.53;100964.84;5131359;27;69397;-34
2021/12/21 10:08:13;;;;;;;;;;;;;;;33.26;55.56;100970.28;5103830;27;65595;-34
2021/12/21 10:10:45;;;;;;;;;;;;;;;33.24;55.87;100972.41;5120484;27;70935;-35
2021/12/21 10:13:18;;;;;;;;;;;;;;;33.23;55.64;100975.34;5125515;27;65781;-34
2021/12/21 10:15:50;;;;;;;;;;;;;;;33.18;55.90;100967.88;5124482;27;70637;-34
2021/12/21 10:18:28;;;;;;;;;;;;;;;33.18;55.67;100976.03;5122851;27;67222;-33
2021/12/21 10:20:59;;;;;;;;;;;;;;;33.19;56.12;100979.63;5103154;27;68993;-35
2021/12/21 10:23:33;;;;;;;;;;;;;;;33.17;55.79;100985.28;5122178;27;66897;-33
2021/12/21 10:26:05;;;;;;;;;;;;;;;33.13;55.97;100978.66;5124238;27;70610;-34
2021/12/21 10:28:38;;;;;;;;;;;;;;;33.11;56.23;100983.50;5126424;27;66371;-33
2021/12/21 10:31:10;;;;;;;;;;;;;;;33.09;56.36;100983.72;5121400;27;69383;-34
2021/12/21 10:33:43;;;;;;;;;;;;;;;33.08;56.42;100981.25;5130691;27;65590;-34
2021/12/21 10:36:13;;;;;;;;;;;;;;;33.05;56.39;100987.16;5110541;27;70661;-34
2021/12/21 10:38:50;;;;;;;;;;;;;;;33.02;56.42;100993.06;5101792;27;65140;-34
2021/12/21 10:41:20;;;;;;;;;;;;;;;33.00;56.63;100992.44;5126697;27;69969;-34
2021/12/21 10:43:56;;;;;;;;;;;;;;;32.99;56.73;100990.75;5124027;27;67235;-34
2021/12/21 10:46:31;;;;;;;;;;;;;;;32.96;57.29;100996.66;5126692;27;70290;-34
2021/12/21 10:49:10;;;;;;;;;;;;;;;32.94;57.58;101000.44;5130288;27;65653;-34
2021/12/21 10:52:07;;;;;;;;;;;;;;;32.88;58.61;101006.81;5130263;27;70334;-36
2021/12/21 10:54:39;;;;;;;;;;;;;;;32.88;58.78;100995.94;5104486;27;66641;-35
2021/12/21 10:57:16;;;;;;;;;;;;;;;32.86;59.11;101005.38;5125336;27;70011;-34
2021/12/21 10:59:47;;;;;;;;;;;;;;;32.84;58.89;101011.03;5123811;27;67160;-34
2021/12/21 11:02:20;;;;;;;;;;;;;;;32.79;58.99;101008.19;5129894;27;70211;-34
2021/12/21 11:04:55;;;;;;;;;;;;;;;32.75;59.65;101017.84;5124353;27;66288;-34
2021/12/21 11:07:38;;;;;;;;;;;;;;;32.74;60.50;101016.19;5122343;27;70172;-35
2021/12/21 11:10:15;;;;;;;;;;;;;;;32.69;60.05;101003.28;5127104;27;66703;-34
2021/12/21 11:13:08;;;;;;;;;;;;;;;32.67;60.05;101015.44;5127394;27;69995;-34
2021/12/21 11:15:43;;;;;;;;;;;;;;;32.65;60.12;101017.56;5125470;27;66925;-34
2021/12/21 11:18:16;;;;;;;;;;;;;;;32.61;60.48;101022.63;5127223;27;70426;-34
2021/12/21 11:20:48;;;;;;;;;;;;;;;32.57;60.13;101012.44;5128384;27;66985;-35
2021/12/21 11:23:19;;;;;;;;;;;;;;;32.56;60.45;101018.94;5126876;27;70876;-35
2021/12/21 11:25:53;;;;;;;;;;;;;;;32.46;60.76;101014.06;5129378;27;66431;-34
2021/12/21 11:28:29;;;;;;;;;;;;;;;32.46;60.97;101042.03;5128733;27;69827;-34
2021/12/21 11:31:00;;;;;;;;;;;;;;;32.44;60.70;101027.00;5127951;27;67135;-35
2021/12/21 11:33:35;;;;;;;;;;;;;;;32.42;61.14;101039.97;5125210;27;70898;-35
2021/12/21 11:38:54;;;;;;;;;;;;;;;32.32;61.31;101045.94;5124196;27;70011;-35
2021/12/21 11:41:25;;;;;;;;;;;;;;;32.32;61.42;101054.09;5127677;27;66311;-35
2021/12/21 11:44:02;;;;;;;;;;;;;;;32.27;61.60;101060.19;5121929;27;70402;-35
2021/12/21 11:46:50;;;;;;;;;;;;;;;32.24;61.73;101057.09;5110512;27;64913;-35
2021/12/21 11:49:27;;;;;;;;;;;;;;;32.22;61.61;101061.91;5124990;27;69911;-35
2021/12/21 11:52:17;;;;;;;;;;;;;;;32.16;62.03;101070.97;5128062;27;66544;-34
2021/12/21 11:54:49;;;;;;;;;;;;;;;32.10;62.15;101071.84;5126190;27;70096;-35
2021/12/21 11:57:20;;;;;;;;;;;;;;;32.07;61.95;101083.13;5137932;27;66410;-35
2021/12/21 11:59:50;;;;;;;;;;;;;;;32.03;62.10;101086.28;5125982;27;69822;-35
2021/12/21 12:02:28;;;;;;;;;;;;;;;31.98;62.37;101093.44;5128142;27;66433;-34
2021/12/21 12:04:58;;;;;;;;;;;;;;;31.94;63.03;101098.50;5122853;27;70635;-35
2021/12/21 12:07:35;;;;;;;;;;;;;;;31.92;62.71;101100.59;5106876;27;65337;-35
2021/12/21 12:10:07;;;;;;;;;;;;;;;31.93;62.78;101106.84;5126617;27;69963;-35
2021/12/21 12:12:37;;;;;;;;;;;;;;;31.93;62.89;101102.28;5106447;27;65382;-34
2021/12/21 12:15:08;;;;;;;;;;;;;;;31.92;62.99;101111.44;5107248;27;69753;-34
2021/12/21 12:17:48;;;;;;;;;;;;;;;31.93;62.84;101118.56;5120176;27;65495;-35
2021/12/21 12:20:26;;;;;;;;;;;;;;;31.89;62.78;101113.75;5125755;27;70840;-34
2021/12/21 12:23:08;;;;;;;;;;;;;;;31.86;63.15;101117.72;5128819;27;66756;-35
2021/12/21 12:25:48;;;;;;;;;;;;;;;31.78;63.32;101115.28;5120348;27;69367;-35
2021/12/21 12:28:22;;;;;;;;;;;;;;;31.81;63.51;101120.28;5128332;27;66414;-34
2021/12/21 12:30:54;;;;;;;;;;;;;;;31.80;62.89;101124.06;5133833;27;70056;-33
2021/12/21 12:33:36;;;;;;;;;;;;;;;31.76;63.34;101117.38;5111998;27;66046;-34
2021/12/21 12:36:06;;;;;;;;;;;;;;;31.72;63.31;101117.00;5131981;27;69528;-35
2021/12/21 12:38:42;;;;;;;;;;;;;;;31.69;63.76;101132.91;5131629;27;65479;-35
2021/12/21 12:41:14;;;;;;;;;;;;;;;31.69;63.81;101127.47;5128766;27;69545;-33
2021/12/21 12:44:01;;;;;;;;;;;;;;;31.65;63.78;101126.25;5111633;27;66390;-35
2021/12/21 12:46:32;;;;;;;;;;;;;;;31.63;63.48;101133.78;5099486;27;70212;-34
2021/12/21 12:49:05;;;;;;;;;;;;;;;31.62;63.62;101149.19;5129353;27;65855;-33
2021/12/21 12:51:40;;;;;;;;;;;;;;;31.60;63.82;101146.72;5129679;27;70017;-34
2021/12/21 12:54:25;;;;;;;;;;;;;;;31.45;63.65;101127.19;5126409;27;66335;-34
2021/12/21 12:57:04;;;;;;;;;;;;;;;31.57;63.72;101158.00;5107427;27;70543;-34
2021/12/21 13:00:03;;;;;;;;;;;;;;;31.55;63.62;101153.84;5125472;27;66609;-34
2021/12/21 13:03:10;;;;;;;;;;;;;;;31.52;63.50;101163.25;5123660;27;70184;-35
2021/12/21 13:05:59;;;;;;;;;;;;;;;31.41;64.22;101155.81;5078883;27;66470;-34
2021/12/21 13:09:03;;;;;;;;;;;;;;;31.39;64.52;101160.63;5122761;27;69072;-34
2021/12/21 13:11:54;;;;;;;;;;;;;;;31.29;64.75;101168.38;5110379;27;66169;-36
2021/12/21 13:14:38;;;;;;;;;;;;;;;31.28;65.45;101169.41;5119676;27;69778;-35
2021/12/21 13:17:28;;;;;;;;;;;;;;;31.24;64.99;101173.59;5120242;27;65656;-36
2021/12/21 13:20:04;;;;;;;;;;;;;;;31.26;64.98;101171.50;5105514;27;69573;-36
2021/12/21 13:22:40;;;;;;;;;;;;;;;31.20;65.44;101170.47;5123037;27;66648;-35
2021/12/21 13:25:46;;;;;;;;;;;;;;;31.15;64.54;101181.97;5112431;27;70227;-35
2021/12/21 13:28:30;;;;;;;;;;;;;;;31.12;65.32;101177.00;5125339;27;65441;-35
2021/12/21 13:31:12;;;;;;;;;;;;;;;31.12;64.68;101182.41;5127597;27;70686;-36
2021/12/21 13:33:50;;;;;;;;;;;;;;;31.10;64.79;101186.38;5122730;27;66656;-35
2021/12/21 13:36:52;;;;;;;;;;;;;;;31.07;65.22;101184.94;5110169;27;69595;-36
2021/12/21 13:39:32;;;;;;;;;;;;;;;31.02;66.01;101192.88;5095881;27;66241;-35
2021/12/21 13:42:23;;;;;;;;;;;;;;;31.00;65.30;101188.69;5116375;27;70358;-35
2021/12/21 13:45:09;;;;;;;;;;;;;;;30.97;65.92;101195.38;5122203;27;66490;-35
2021/12/21 13:48:07;;;;;;;;;;;;;;;30.95;65.55;101189.34;5127115;27;70757;-35
2021/12/21 13:50:52;;;;;;;;;;;;;;;30.84;67.60;101185.44;5128190;27;65908;-34
2021/12/21 13:53:47;;;;;;;;;;;;;;;30.75;66.12;101199.38;5111530;27;69798;-34
2021/12/21 13:56:24;;;;;;;;;;;;;;;30.51;63.00;101193.59;5125312;27;66113;-34
2021/12/21 13:59:17;;;;;;;;;;;;;;;30.29;61.65;101195.69;5116777;27;71019;-35
2021/12/21 14:01:55;;;;;;;;;;;;;;;30.13;60.80;101198.78;5126170;27;66464;-35
2021/12/21 14:04:48;;;;;;;;;;;;;;;29.96;58.80;101199.19;5124836;27;69316;-33
2021/12/21 14:07:26;;;;;;;;;;;;;;;29.72;58.88;101203.28;5104649;27;66924;-34
2021/12/21 14:10:18;;;;;;;;;;;;;;;29.51;57.56;101200.72;5111368;27;70077;-33
2021/12/21 14:13:03;;;;;;;;;;;;;;;29.39;58.30;101204.03;5122134;27;65715;-34
2021/12/21 14:16:09;;;;;;;;;;;;;;;29.26;57.33;101209.38;5103999;27;69789;-36
2021/12/21 14:18:43;;;;;;;;;;;;;;;29.14;57.69;101208.25;5119441;27;65530;-35